Viking Sun — LAYT7 — position and weather

sailwx.info

Track history (hours):
 
Tides and Currents Weather Stations Pressure Air Temp Water Temp Dewpoint Dewpoint Depression Visibility Wind Speed Wind Dir Waves Ship Positions

Viking Sun

Last reported at 2019-Jul-16 10:27 UTC. Time now 2019-Jul-16 10:49 UTC.
Position N 56°00' W 003°11'.

Length 228 m; draft 6.8 m.

Type: Passenger vessel. MMSI: 257179000.

Date/timePositionNaut miles runAvg speedWind from/ knotsBaromVisibWave heightAir tempDewpointWater temp
2019-Jul-16 10:27N 56°00' W 003°11'0 0.1
2019-Jul-16 09:57N 56°00' W 003°11'0 0.1
2019-Jul-16 09:27N 56°00' W 003°11'0 0.0
2019-Jul-16 08:57N 56°00' W 003°11'0 0.0
2019-Jul-16 08:27N 56°00' W 003°11'0 0.0
2019-Jul-16 07:57N 56°00' W 003°11'0 0.0
2019-Jul-16 07:27N 56°00' W 003°11'0 0.0
2019-Jul-16 06:57N 56°00' W 003°11'0 0.1
2019-Jul-16 06:28N 56°00' W 003°11'3 5.7
2019-Jul-16 06:00N 56°01' W 003°07'510.8
2019-Jul-16 05:30N 56°04' W 002°58'612.0
2019-Jul-16 05:00N 56°07' W 002°49'713.1
2019-Jul-16 04:30N 56°08' W 002°38'612.5
2019-Jul-16 04:00N 56°10' W 002°27'714.9
2019-Jul-16 03:30N 56°16' W 002°18'815.2
2019-Jul-16 03:00N 56°22' W 002°11'815.2
2019-Jul-16 02:30N 56°28' W 002°02'815.5
2019-Jul-16 01:59N 56°35' W 001°55'2116.0
2019-Jul-16 00:40N 56°54' W 001°39'315.7
2019-Jul-16 00:27N 56°57' W 001°37'2617.9
2019-Jul-15 23:01N 57°21' W 001°18'017.8
2019-Jul-15 23:00N 57°21' W 001°18'917.9
2019-Jul-15 22:30N 57°30' W 001°15'9517.3
2019-Jul-15 17:02N 58°55' W 002°34'017.3
2019-Jul-15 17:00N 58°56' W 002°34'815.3
2019-Jul-15 16:30N 59°00' W 002°46'612.1
2019-Jul-15 16:00N 59°01' W 002°58'1 2.2
2019-Jul-15 15:28N 59°00' W 002°59'0 0.0
2019-Jul-15 14:58N 59°00' W 002°59'0 0.0
2019-Jul-15 14:28N 59°00' W 002°59'0 0.0
2019-Jul-15 13:58N 59°00' W 002°59'0 0.0
2019-Jul-15 13:28N 59°00' W 002°59'0 0.0
2019-Jul-15 12:58N 59°00' W 002°59'0 0.0
2019-Jul-15 12:28N 59°00' W 002°59'0 0.0
2019-Jul-15 11:58N 59°00' W 002°59'0 0.0
2019-Jul-15 11:28N 59°00' W 002°59'0 0.0
2019-Jul-15 10:58N 59°00' W 002°59'0 0.0
2019-Jul-15 10:28N 59°00' W 002°59'0 0.0
2019-Jul-15 09:58N 59°00' W 002°59'0 0.0
2019-Jul-15 09:25N 59°00' W 002°59'0 0.0
2019-Jul-15 08:58N 59°00' W 002°59'0 0.0
2019-Jul-15 08:28N 59°00' W 002°59'0 0.0
2019-Jul-15 07:58N 59°00' W 002°59'0 0.0
2019-Jul-15 07:28N 59°00' W 002°59'0 0.0
2019-Jul-15 06:59N 59°00' W 002°59'1 1.4
2019-Jul-15 06:30N 59°01' W 002°58'4 7.6
2019-Jul-15 06:00N 59°01' W 002°50'5 9.3
2019-Jul-15 05:30N 58°60' W 002°41'510.4
2019-Jul-15 05:00N 58°57' W 002°33'612.8
2019-Jul-15 04:31N 58°51' W 002°36'713.3
2019-Jul-15 04:00N 58°46' W 002°46'612.7
2019-Jul-15 03:30N 58°43' W 002°56'510.5
2019-Jul-15 03:00N 58°43' W 003°06'5 9.4
2019-Jul-15 02:30N 58°43' W 003°15'510.7
2019-Jul-15 02:00N 58°43' W 003°26'612.0
2019-Jul-15 01:30N 58°43' W 003°37'612.9
2019-Jul-15 01:00N 58°43' W 003°50'713.3
2019-Jul-15 00:30N 58°43' W 004°03'713.4
2019-Jul-15 00:00N 58°43' W 004°15'713.0
2019-Jul-14 23:30N 58°43' W 004°28'4711.9
2019-Jul-14 19:32N 58°11' W 005°35'413.9
2019-Jul-14 19:16N 58°07' W 005°35'814.2
2019-Jul-14 18:43N 57°59' W 005°35'312.5
2019-Jul-14 18:27N 57°57' W 005°32'7 0.7
2019-Jul-14 08:30N 57°57' W 005°45'13714.6
2019-Jul-13 23:06N 55°45' W 006°54'218.7
2019-Jul-13 23:00N 55°43' W 006°52'918.7
2019-Jul-13 22:31N 55°36' W 006°42'918.2
2019-Jul-13 22:00N 55°31' W 006°29'918.0
2019-Jul-13 21:31N 55°26' W 006°15'816.8
2019-Jul-13 21:01N 55°23' W 006°01'816.2
2019-Jul-13 20:31N 55°17' W 005°53'815.5
2019-Jul-13 20:01N 55°10' W 005°46'815.7
2019-Jul-13 19:29N 55°03' W 005°39'816.4
2019-Jul-13 18:59N 54°55' W 005°35'816.6
2019-Jul-13 18:30N 54°47' W 005°36'714.4
2019-Jul-13 18:01N 54°42' W 005°44'611.2
2019-Jul-13 17:30N 54°38' W 005°52'1 2.0
2019-Jul-13 17:00N 54°38' W 005°53'0 0.0
2019-Jul-13 16:30N 54°38' W 005°53'0 0.0
2019-Jul-13 16:00N 54°38' W 005°53'0 0.0
2019-Jul-13 15:30N 54°38' W 005°53'0 0.0
2019-Jul-13 15:00N 54°38' W 005°53'0 0.0
2019-Jul-13 14:30N 54°38' W 005°53'0 0.0
2019-Jul-13 14:00N 54°38' W 005°53'0 0.0
2019-Jul-13 13:30N 54°38' W 005°53'0 0.0
2019-Jul-13 13:00N 54°38' W 005°53'0 0.0
2019-Jul-13 12:30N 54°38' W 005°53'0 0.0
2019-Jul-13 12:00N 54°38' W 005°53'0 0.0
2019-Jul-13 11:30N 54°38' W 005°53'0 0.0
2019-Jul-13 11:00N 54°38' W 005°53'0 0.0
2019-Jul-13 10:30N 54°38' W 005°53'0 0.0
2019-Jul-13 10:00N 54°38' W 005°53'0 0.0
2019-Jul-13 09:30N 54°38' W 005°53'0 0.0
2019-Jul-13 09:00N 54°38' W 005°53'0 0.0
2019-Jul-13 08:30N 54°38' W 005°53'0 0.0
2019-Jul-13 08:00N 54°38' W 005°53'0 0.0
2019-Jul-13 07:30N 54°38' W 005°53'0 0.0
2019-Jul-13 07:00N 54°38' W 005°53'0 0.3
2019-Jul-13 06:28N 54°38' W 005°53'2 5.0
2019-Jul-13 06:00N 54°39' W 005°51'611.0
2019-Jul-13 05:30N 54°42' W 005°43'4 8.3
2019-Jul-13 05:00N 54°44' W 005°36'4 8.7
2019-Jul-13 04:30N 54°44' W 005°29'5 9.8
2019-Jul-13 04:00N 54°42' W 005°22'5 9.1
2019-Jul-13 03:30N 54°38' W 005°17'610.2
2019-Jul-13 02:58N 54°33' W 005°14'611.4
2019-Jul-13 02:28N 54°27' W 005°11'611.7
2019-Jul-13 01:56N 54°21' W 005°09'511.8
2019-Jul-13 01:30N 54°16' W 005°07'611.9
2019-Jul-13 01:00N 54°11' W 005°03'611.9
2019-Jul-13 00:30N 54°05' W 005°01'4612.0
2019-Jul-12 20:43N 53°38' W 003°58'312.1
2019-Jul-12 20:27N 53°37' W 003°53'511.7
2019-Jul-12 20:00N 53°35' W 003°45'511.1
2019-Jul-12 19:30N 53°34' W 003°36'611.0
2019-Jul-12 19:00N 53°33' W 003°27'510.2
2019-Jul-12 18:30N 53°33' W 003°18'4 8.5
2019-Jul-12 18:00N 53°32' W 003°11'611.9
2019-Jul-12 17:30N 53°28' W 003°03'4 8.1
2019-Jul-12 17:00N 53°25' W 003°00'0 0.0
2019-Jul-12 16:30N 53°25' W 003°00'0 0.0
2019-Jul-12 16:00N 53°25' W 003°00'0 0.0
2019-Jul-12 15:30N 53°25' W 003°00'0 0.0
2019-Jul-12 15:00N 53°25' W 003°00'0 0.0
2019-Jul-12 14:30N 53°25' W 003°00'0 0.0
2019-Jul-12 14:00N 53°25' W 003°00'0 0.0
2019-Jul-12 13:30N 53°25' W 003°00'0 0.0
2019-Jul-12 13:00N 53°25' W 003°00'0 0.0
2019-Jul-12 12:30N 53°25' W 003°00'0 0.0
2019-Jul-12 12:00N 53°25' W 003°00'0 0.0
2019-Jul-12 11:30N 53°25' W 003°00'0 0.0
2019-Jul-12 11:00N 53°25' W 003°00'0 0.0
2019-Jul-12 10:30N 53°25' W 003°00'0 0.0
2019-Jul-12 10:00N 53°25' W 003°00'0 0.0
2019-Jul-12 09:30N 53°25' W 003°00'0 0.0
2019-Jul-12 09:00N 53°25' W 003°00'0 0.0
2019-Jul-12 08:30N 53°25' W 003°00'0 0.0
2019-Jul-12 08:00N 53°25' W 003°00'0 0.0
2019-Jul-12 07:30N 53°25' W 003°00'0 0.0
2019-Jul-12 07:00N 53°25' W 003°00'0 0.0
2019-Jul-12 06:30N 53°25' W 003°00'0 0.2
2019-Jul-12 06:01N 53°24' W 003°00'3 5.3
2019-Jul-12 05:30N 53°27' W 003°02'510.2
2019-Jul-12 05:00N 53°31' W 003°07'611.3
2019-Jul-12 04:31N 53°31' W 003°16'4 8.5
2019-Jul-12 04:00N 53°31' W 003°24'4 8.8
2019-Jul-12 03:30N 53°31' W 003°31'4 8.9
2019-Jul-12 03:00N 53°31' W 003°38'4 8.7
2019-Jul-12 02:30N 53°31' W 003°46'9 9.3
2019-Jul-12 01:30N 53°36' W 003°59'5 9.9
2019-Jul-12 01:00N 53°38' W 004°07'5 9.7
2019-Jul-12 00:30N 53°40' W 004°14'510.1
2019-Jul-12 00:00N 53°43' W 004°21'910.1
2019-Jul-11 23:05N 53°44' W 004°37'1 9.5
2019-Jul-11 23:00N 53°44' W 004°38'8 7.6
2019-Jul-11 21:56N 53°41' W 004°51'4 9.4
2019-Jul-11 21:30N 53°37' W 004°52'5 9.2
2019-Jul-11 21:00N 53°34' W 004°58'28 1.3
2019-Jul-10 23:58N 53°27' W 005°44'612.7
2019-Jul-10 23:30N 53°23' W 005°51'611.9
2019-Jul-10 23:00N 53°21' W 006°00'5 9.8
2019-Jul-10 22:30N 53°21' W 006°08'3 4.8
2019-Jul-10 21:56N 53°21' W 006°13'0 0.0
2019-Jul-10 21:23N 53°21' W 006°13'0 0.0
2019-Jul-10 20:50N 53°21' W 006°13'0 0.0
2019-Jul-10 20:20N 53°21' W 006°13'0 0.0
2019-Jul-10 19:47N 53°21' W 006°13'0 0.0
2019-Jul-10 19:14N 53°21' W 006°13'0 0.0
2019-Jul-10 18:59N 53°21' W 006°13'0 0.0
2019-Jul-10 18:29N 53°21' W 006°13'0 0.0
2019-Jul-10 17:59N 53°21' W 006°13'0 0.0
2019-Jul-10 17:29N 53°21' W 006°13'0 0.0
2019-Jul-10 16:53N 53°21' W 006°13'0 0.0
2019-Jul-10 16:23N 53°21' W 006°13'0 0.0
2019-Jul-10 15:53N 53°21' W 006°13'0 0.0
2019-Jul-10 15:23N 53°21' W 006°13'0 0.0
2019-Jul-10 14:56N 53°21' W 006°13'0 0.0
2019-Jul-10 14:23N 53°21' W 006°13'0 0.0
2019-Jul-10 13:56N 53°21' W 006°13'0 0.0
2019-Jul-10 13:20N 53°21' W 006°13'0 0.0
2019-Jul-10 12:53N 53°21' W 006°13'0 0.0
2019-Jul-10 12:23N 53°21' W 006°13'0 0.0
2019-Jul-10 11:53N 53°21' W 006°13'0 0.0
2019-Jul-10 11:20N 53°21' W 006°13'0 0.0
2019-Jul-10 10:47N 53°21' W 006°13'0 0.0
2019-Jul-10 10:17N 53°21' W 006°13'0 0.0
2019-Jul-10 09:44N 53°21' W 006°13'0 0.0
2019-Jul-10 09:11N 53°21' W 006°13'0 0.0
2019-Jul-10 08:59N 53°21' W 006°13'0 0.0
2019-Jul-10 08:29N 53°21' W 006°13'0 0.0
2019-Jul-10 07:59N 53°21' W 006°13'0 0.0
2019-Jul-10 07:29N 53°21' W 006°13'0 0.0
2019-Jul-10 06:59N 53°21' W 006°13'0 0.1
2019-Jul-10 06:29N 53°21' W 006°13'2 4.6
2019-Jul-10 06:00N 53°21' W 006°09'5 9.8
2019-Jul-10 05:30N 53°18' W 006°02'611.1
2019-Jul-10 05:00N 53°13' W 005°59'611.8
2019-Jul-10 04:30N 53°07' W 005°56'611.9
2019-Jul-10 04:00N 53°01' W 005°55'611.9
2019-Jul-10 03:30N 52°55' W 005°53'713.2
2019-Jul-10 03:00N 52°49' W 005°52'714.3
2019-Jul-10 02:30N 52°42' W 005°51'814.8
2019-Jul-10 02:00N 52°34' W 005°50'714.7
2019-Jul-10 01:30N 52°27' W 005°49'714.7
2019-Jul-10 01:00N 52°20' W 005°49'714.4
2019-Jul-10 00:30N 52°12' W 005°48'714.4
2019-Jul-10 00:00N 52°05' W 005°47'714.1
2019-Jul-09 23:29N 51°58' W 005°46'713.1
2019-Jul-09 22:58N 51°51' W 005°47'713.0
2019-Jul-09 22:26N 51°45' W 005°50'712.5
2019-Jul-09 21:54N 51°38' W 005°52'812.5
2019-Jul-09 21:15N 51°30' W 005°52'1012.4
2019-Jul-09 20:28N 51°20' W 005°53'912.4
2019-Jul-09 19:46N 51°11' W 005°53'312.4
2019-Jul-09 19:30N 51°08' W 005°53'712.4
2019-Jul-09 18:57N 51°01' W 005°53'612.5
2019-Jul-09 18:30N 50°56' W 005°53'612.2
2019-Jul-09 18:00N 50°50' W 005°53'712.1
2019-Jul-09 17:26N 50°43' W 005°52'512.1
2019-Jul-09 17:00N 50°38' W 005°52'611.9
2019-Jul-09 16:30N 50°31' W 005°52'612.0
2019-Jul-09 15:58N 50°25' W 005°53'612.3
2019-Jul-09 15:26N 50°19' W 005°53'613.2
2019-Jul-09 15:00N 50°13' W 005°52'1412.7
2019-Jul-09 13:55N 49°59' W 005°53'513.2
2019-Jul-09 13:30N 49°58' W 005°45'713.5
2019-Jul-09 13:00N 49°56' W 005°34'713.4
2019-Jul-09 12:30N 49°54' W 005°24'713.2
2019-Jul-09 12:00N 49°53' W 005°15'713.2
2019-Jul-09 11:30N 49°53' W 005°04'713.2
2019-Jul-09 10:59N 49°53' W 004°54'713.2
2019-Jul-09 10:30N 49°53' W 004°44'613.0
2019-Jul-09 10:00N 49°54' W 004°34'713.2
2019-Jul-09 09:30N 49°55' W 004°24'713.4
2019-Jul-09 09:00N 49°56' W 004°13'713.6
2019-Jul-09 08:29N 49°57' W 004°02'714.0
2019-Jul-09 08:01N 49°57' W 003°52'714.5
2019-Jul-09 07:31N 49°58' W 003°41'815.1
2019-Jul-09 07:01N 49°58' W 003°29'815.3
2019-Jul-09 06:31N 49°59' W 003°17'816.8
2019-Jul-09 06:01N 49°59' W 003°04'816.8
2019-Jul-09 05:30N 50°01' W 002°51'816.8
2019-Jul-09 05:01N 50°03' W 002°39'816.4
2019-Jul-09 04:31N 50°05' W 002°26'815.9
2019-Jul-09 04:01N 50°07' W 002°14'815.1
2019-Jul-09 03:31N 50°09' W 002°03'714.3
2019-Jul-09 03:00N 50°11' W 001°52'713.6
2019-Jul-09 02:30N 50°13' W 001°42'613.0
2019-Jul-09 02:00N 50°15' W 001°32'612.5
2019-Jul-09 01:30N 50°16' W 001°23'612.3
2019-Jul-09 01:00N 50°18' W 001°13'611.9
2019-Jul-09 00:30N 50°20' W 001°05'612.1
2019-Jul-09 00:00N 50°21' W 000°55'612.9
2019-Jul-08 23:30N 50°23' W 000°46'713.6
2019-Jul-08 23:00N 50°25' W 000°35'714.2
2019-Jul-08 22:30N 50°26' W 000°24'715.1
2019-Jul-08 22:00N 50°28' W 000°13'815.7
2019-Jul-08 21:30N 50°30' W 000°01'816.1
2019-Jul-08 21:01N 50°33' E 000°11'816.4
2019-Jul-08 20:30N 50°35' E 000°23'816.4
2019-Jul-08 20:00N 50°38' E 000°36'816.0
2019-Jul-08 19:29N 50°42' E 000°47'1315.2
2019-Jul-08 18:39N 50°50' E 001°03'314.4
2019-Jul-08 18:26N 50°52' E 001°06'714.2
2019-Jul-08 17:55N 50°58' E 001°13'613.5
2019-Jul-08 17:30N 51°03' E 001°18'4 8.4
2019-Jul-08 17:00N 51°07' E 001°19'0 0.1
2019-Jul-08 16:29N 51°07' E 001°19'0 0.0
2019-Jul-08 15:59N 51°07' E 001°19'0 0.0
2019-Jul-08 15:29N 51°07' E 001°19'0 0.0
2019-Jul-08 14:59N 51°07' E 001°19'0 0.0
2019-Jul-08 14:29N 51°07' E 001°19'0 0.0
2019-Jul-08 13:59N 51°07' E 001°19'0 0.0
2019-Jul-08 13:26N 51°07' E 001°19'0 0.0
2019-Jul-08 12:59N 51°07' E 001°19'0 0.0
2019-Jul-08 12:23N 51°07' E 001°19'0 0.0
2019-Jul-08 11:56N 51°07' E 001°19'0 0.0
2019-Jul-08 11:26N 51°07' E 001°19'0 0.0
2019-Jul-08 10:50N 51°07' E 001°19'0 0.0
2019-Jul-08 10:29N 51°07' E 001°19'0 0.0
2019-Jul-08 09:59N 51°07' E 001°19'0 0.0
2019-Jul-08 09:29N 51°07' E 001°19'0 0.0
2019-Jul-08 08:56N 51°07' E 001°19'0 0.0
2019-Jul-08 08:26N 51°07' E 001°19'0 0.0
2019-Jul-08 07:59N 51°07' E 001°19'0 0.0
2019-Jul-08 07:23N 51°07' E 001°19'0 0.0
2019-Jul-08 06:59N 51°07' E 001°19'0 0.0
2019-Jul-08 06:29N 51°07' E 001°19'0 0.3
2019-Jul-08 06:00N 51°07' E 001°20'5 9.4
2019-Jul-08 05:30N 51°08' E 001°27'5 9.6
2019-Jul-08 05:00N 51°08' E 001°35'5 9.1
2019-Jul-08 04:30N 51°11' E 001°40'5 9.3
2019-Jul-08 04:00N 51°14' E 001°46'5 9.6
2019-Jul-08 03:30N 51°19' E 001°49'5 9.6
2019-Jul-08 03:00N 51°23' E 001°52'5 9.2
2019-Jul-08 02:30N 51°27' E 001°56'4 9.0
2019-Jul-08 02:00N 51°30' E 002°00'510.3
2019-Jul-08 01:30N 51°34' E 002°06'612.8
2019-Jul-08 01:00N 51°39' E 002°13'610.1
2019-Jul-08 00:23N 51°45' E 002°11'410.7
2019-Jul-08 00:01N 51°43' E 002°06'611.3
2019-Jul-07 23:31N 51°38' E 002°01'611.6
2019-Jul-07 23:00N 51°34' E 001°54'612.2
2019-Jul-07 22:30N 51°32' E 001°45'612.4
2019-Jul-07 22:00N 51°29' E 001°36'510.0
2019-Jul-07 21:31N 51°26' E 001°30'714.2
2019-Jul-07 21:00N 51°29' E 001°20'714.6
2019-Jul-07 20:30N 51°29' E 001°08'713.4
2019-Jul-07 20:01N 51°29' E 000°57'918.0
2019-Jul-07 19:31N 51°30' E 000°43'815.7
2019-Jul-07 19:01N 51°30' E 000°30'510.9
2019-Jul-07 18:31N 51°27' E 000°23'5 9.2
2019-Jul-07 18:00N 51°28' E 000°16'611.5
2019-Jul-07 17:30N 51°31' E 000°08'5 6.2
2019-Jul-07 16:39N 51°30' W 000°00'  
Track history (hours):
 
Tides and Currents Weather Stations Pressure Air Temp Water Temp Dewpoint Dewpoint Depression Visibility Wind Speed Wind Dir Waves Ship Positions

Viking Sun

Last reported at 2019-Jul-16 10:27 UTC. Time now 2019-Jul-16 10:49 UTC.
Position N 56°00' W 003°11'.

Length 228 m; draft 6.8 m.

Type: Passenger vessel. MMSI: 257179000.

Date/timePositionNaut miles runAvg speedWind from/ knotsBaromVisibWave heightAir tempDewpointWater temp
2019-Jul-16 10:27N 56°00' W 003°11'0 0.1
2019-Jul-16 09:57N 56°00' W 003°11'0 0.1
2019-Jul-16 09:27N 56°00' W 003°11'0 0.0
2019-Jul-16 08:57N 56°00' W 003°11'0 0.0
2019-Jul-16 08:27N 56°00' W 003°11'0 0.0
2019-Jul-16 07:57N 56°00' W 003°11'0 0.0
2019-Jul-16 07:27N 56°00' W 003°11'0 0.0
2019-Jul-16 06:57N 56°00' W 003°11'0 0.1
2019-Jul-16 06:28N 56°00' W 003°11'3 5.7
2019-Jul-16 06:00N 56°01' W 003°07'510.8
2019-Jul-16 05:30N 56°04' W 002°58'612.0
2019-Jul-16 05:00N 56°07' W 002°49'713.1
2019-Jul-16 04:30N 56°08' W 002°38'612.5
2019-Jul-16 04:00N 56°10' W 002°27'714.9
2019-Jul-16 03:30N 56°16' W 002°18'815.2
2019-Jul-16 03:00N 56°22' W 002°11'815.2
2019-Jul-16 02:30N 56°28' W 002°02'815.5
2019-Jul-16 01:59N 56°35' W 001°55'2116.0
2019-Jul-16 00:40N 56°54' W 001°39'315.7
2019-Jul-16 00:27N 56°57' W 001°37'2617.9
2019-Jul-15 23:01N 57°21' W 001°18'017.8
2019-Jul-15 23:00N 57°21' W 001°18'917.9
2019-Jul-15 22:30N 57°30' W 001°15'9517.3
2019-Jul-15 17:02N 58°55' W 002°34'017.3
2019-Jul-15 17:00N 58°56' W 002°34'815.3
2019-Jul-15 16:30N 59°00' W 002°46'612.1
2019-Jul-15 16:00N 59°01' W 002°58'1 2.2
2019-Jul-15 15:28N 59°00' W 002°59'0 0.0
2019-Jul-15 14:58N 59°00' W 002°59'0 0.0
2019-Jul-15 14:28N 59°00' W 002°59'0 0.0
2019-Jul-15 13:58N 59°00' W 002°59'0 0.0
2019-Jul-15 13:28N 59°00' W 002°59'0 0.0
2019-Jul-15 12:58N 59°00' W 002°59'0 0.0
2019-Jul-15 12:28N 59°00' W 002°59'0 0.0
2019-Jul-15 11:58N 59°00' W 002°59'0 0.0
2019-Jul-15 11:28N 59°00' W 002°59'0 0.0
2019-Jul-15 10:58N 59°00' W 002°59'0 0.0
2019-Jul-15 10:28N 59°00' W 002°59'0 0.0
2019-Jul-15 09:58N 59°00' W 002°59'0 0.0
2019-Jul-15 09:25N 59°00' W 002°59'0 0.0
2019-Jul-15 08:58N 59°00' W 002°59'0 0.0
2019-Jul-15 08:28N 59°00' W 002°59'0 0.0
2019-Jul-15 07:58N 59°00' W 002°59'0 0.0
2019-Jul-15 07:28N 59°00' W 002°59'0 0.0
2019-Jul-15 06:59N 59°00' W 002°59'1 1.4
2019-Jul-15 06:30N 59°01' W 002°58'4 7.6
2019-Jul-15 06:00N 59°01' W 002°50'5 9.3
2019-Jul-15 05:30N 58°60' W 002°41'510.4
2019-Jul-15 05:00N 58°57' W 002°33'612.8
2019-Jul-15 04:31N 58°51' W 002°36'713.3
2019-Jul-15 04:00N 58°46' W 002°46'612.7
2019-Jul-15 03:30N 58°43' W 002°56'510.5
2019-Jul-15 03:00N 58°43' W 003°06'5 9.4
2019-Jul-15 02:30N 58°43' W 003°15'510.7
2019-Jul-15 02:00N 58°43' W 003°26'612.0
2019-Jul-15 01:30N 58°43' W 003°37'612.9
2019-Jul-15 01:00N 58°43' W 003°50'713.3
2019-Jul-15 00:30N 58°43' W 004°03'713.4
2019-Jul-15 00:00N 58°43' W 004°15'713.0
2019-Jul-14 23:30N 58°43' W 004°28'4711.9
2019-Jul-14 19:32N 58°11' W 005°35'413.9
2019-Jul-14 19:16N 58°07' W 005°35'814.2
2019-Jul-14 18:43N 57°59' W 005°35'312.5
2019-Jul-14 18:27N 57°57' W 005°32'7 0.7
2019-Jul-14 08:30N 57°57' W 005°45'13714.6
2019-Jul-13 23:06N 55°45' W 006°54'218.7
2019-Jul-13 23:00N 55°43' W 006°52'918.7
2019-Jul-13 22:31N 55°36' W 006°42'918.2
2019-Jul-13 22:00N 55°31' W 006°29'918.0
2019-Jul-13 21:31N 55°26' W 006°15'816.8
2019-Jul-13 21:01N 55°23' W 006°01'816.2
2019-Jul-13 20:31N 55°17' W 005°53'815.5
2019-Jul-13 20:01N 55°10' W 005°46'815.7
2019-Jul-13 19:29N 55°03' W 005°39'816.4
2019-Jul-13 18:59N 54°55' W 005°35'816.6
2019-Jul-13 18:30N 54°47' W 005°36'714.4
2019-Jul-13 18:01N 54°42' W 005°44'611.2
2019-Jul-13 17:30N 54°38' W 005°52'1 2.0
2019-Jul-13 17:00N 54°38' W 005°53'0 0.0
2019-Jul-13 16:30N 54°38' W 005°53'0 0.0
2019-Jul-13 16:00N 54°38' W 005°53'0 0.0
2019-Jul-13 15:30N 54°38' W 005°53'0 0.0
2019-Jul-13 15:00N 54°38' W 005°53'0 0.0
2019-Jul-13 14:30N 54°38' W 005°53'0 0.0
2019-Jul-13 14:00N 54°38' W 005°53'0 0.0
2019-Jul-13 13:30N 54°38' W 005°53'0 0.0
2019-Jul-13 13:00N 54°38' W 005°53'0 0.0
2019-Jul-13 12:30N 54°38' W 005°53'0 0.0
2019-Jul-13 12:00N 54°38' W 005°53'0 0.0
2019-Jul-13 11:30N 54°38' W 005°53'0 0.0
2019-Jul-13 11:00N 54°38' W 005°53'0 0.0
2019-Jul-13 10:30N 54°38' W 005°53'0 0.0
2019-Jul-13 10:00N 54°38' W 005°53'0 0.0
2019-Jul-13 09:30N 54°38' W 005°53'0 0.0
2019-Jul-13 09:00N 54°38' W 005°53'0 0.0
2019-Jul-13 08:30N 54°38' W 005°53'0 0.0
2019-Jul-13 08:00N 54°38' W 005°53'0 0.0
2019-Jul-13 07:30N 54°38' W 005°53'0 0.0
2019-Jul-13 07:00N 54°38' W 005°53'0 0.3
2019-Jul-13 06:28N 54°38' W 005°53'2 5.0
2019-Jul-13 06:00N 54°39' W 005°51'611.0
2019-Jul-13 05:30N 54°42' W 005°43'4 8.3
2019-Jul-13 05:00N 54°44' W 005°36'4 8.7
2019-Jul-13 04:30N 54°44' W 005°29'5 9.8
2019-Jul-13 04:00N 54°42' W 005°22'5 9.1
2019-Jul-13 03:30N 54°38' W 005°17'610.2
2019-Jul-13 02:58N 54°33' W 005°14'611.4
2019-Jul-13 02:28N 54°27' W 005°11'611.7
2019-Jul-13 01:56N 54°21' W 005°09'511.8
2019-Jul-13 01:30N 54°16' W 005°07'611.9
2019-Jul-13 01:00N 54°11' W 005°03'611.9
2019-Jul-13 00:30N 54°05' W 005°01'4612.0
2019-Jul-12 20:43N 53°38' W 003°58'312.1
2019-Jul-12 20:27N 53°37' W 003°53'511.7
2019-Jul-12 20:00N 53°35' W 003°45'511.1
2019-Jul-12 19:30N 53°34' W 003°36'611.0
2019-Jul-12 19:00N 53°33' W 003°27'510.2
2019-Jul-12 18:30N 53°33' W 003°18'4 8.5
2019-Jul-12 18:00N 53°32' W 003°11'611.9
2019-Jul-12 17:30N 53°28' W 003°03'4 8.1
2019-Jul-12 17:00N 53°25' W 003°00'0 0.0
2019-Jul-12 16:30N 53°25' W 003°00'0 0.0
2019-Jul-12 16:00N 53°25' W 003°00'0 0.0
2019-Jul-12 15:30N 53°25' W 003°00'0 0.0
2019-Jul-12 15:00N 53°25' W 003°00'0 0.0
2019-Jul-12 14:30N 53°25' W 003°00'0 0.0
2019-Jul-12 14:00N 53°25' W 003°00'0 0.0
2019-Jul-12 13:30N 53°25' W 003°00'0 0.0
2019-Jul-12 13:00N 53°25' W 003°00'0 0.0
2019-Jul-12 12:30N 53°25' W 003°00'0 0.0
2019-Jul-12 12:00N 53°25' W 003°00'0 0.0
2019-Jul-12 11:30N 53°25' W 003°00'0 0.0
2019-Jul-12 11:00N 53°25' W 003°00'0 0.0
2019-Jul-12 10:30N 53°25' W 003°00'0 0.0
2019-Jul-12 10:00N 53°25' W 003°00'0 0.0
2019-Jul-12 09:30N 53°25' W 003°00'0 0.0
2019-Jul-12 09:00N 53°25' W 003°00'0 0.0
2019-Jul-12 08:30N 53°25' W 003°00'0 0.0
2019-Jul-12 08:00N 53°25' W 003°00'0 0.0
2019-Jul-12 07:30N 53°25' W 003°00'0 0.0
2019-Jul-12 07:00N 53°25' W 003°00'0 0.0
2019-Jul-12 06:30N 53°25' W 003°00'0 0.2
2019-Jul-12 06:01N 53°24' W 003°00'3 5.3
2019-Jul-12 05:30N 53°27' W 003°02'510.2
2019-Jul-12 05:00N 53°31' W 003°07'611.3
2019-Jul-12 04:31N 53°31' W 003°16'4 8.5
2019-Jul-12 04:00N 53°31' W 003°24'4 8.8
2019-Jul-12 03:30N 53°31' W 003°31'4 8.9
2019-Jul-12 03:00N 53°31' W 003°38'4 8.7
2019-Jul-12 02:30N 53°31' W 003°46'9 9.3
2019-Jul-12 01:30N 53°36' W 003°59'5 9.9
2019-Jul-12 01:00N 53°38' W 004°07'5 9.7
2019-Jul-12 00:30N 53°40' W 004°14'510.1
2019-Jul-12 00:00N 53°43' W 004°21'910.1
2019-Jul-11 23:05N 53°44' W 004°37'1 9.5
2019-Jul-11 23:00N 53°44' W 004°38'8 7.6
2019-Jul-11 21:56N 53°41' W 004°51'4 9.4
2019-Jul-11 21:30N 53°37' W 004°52'5 9.2
2019-Jul-11 21:00N 53°34' W 004°58'28 1.3
2019-Jul-10 23:58N 53°27' W 005°44'612.7
2019-Jul-10 23:30N 53°23' W 005°51'611.9
2019-Jul-10 23:00N 53°21' W 006°00'5 9.8
2019-Jul-10 22:30N 53°21' W 006°08'3 4.8
2019-Jul-10 21:56N 53°21' W 006°13'0 0.0
2019-Jul-10 21:23N 53°21' W 006°13'0 0.0
2019-Jul-10 20:50N 53°21' W 006°13'0 0.0
2019-Jul-10 20:20N 53°21' W 006°13'0 0.0
2019-Jul-10 19:47N 53°21' W 006°13'0 0.0
2019-Jul-10 19:14N 53°21' W 006°13'0 0.0
2019-Jul-10 18:59N 53°21' W 006°13'0 0.0
2019-Jul-10 18:29N 53°21' W 006°13'0 0.0
2019-Jul-10 17:59N 53°21' W 006°13'0 0.0
2019-Jul-10 17:29N 53°21' W 006°13'0 0.0
2019-Jul-10 16:53N 53°21' W 006°13'0 0.0
2019-Jul-10 16:23N 53°21' W 006°13'0 0.0
2019-Jul-10 15:53N 53°21' W 006°13'0 0.0
2019-Jul-10 15:23N 53°21' W 006°13'0 0.0
2019-Jul-10 14:56N 53°21' W 006°13'0 0.0
2019-Jul-10 14:23N 53°21' W 006°13'0 0.0
2019-Jul-10 13:56N 53°21' W 006°13'0 0.0
2019-Jul-10 13:20N 53°21' W 006°13'0 0.0
2019-Jul-10 12:53N 53°21' W 006°13'0 0.0
2019-Jul-10 12:23N 53°21' W 006°13'0 0.0
2019-Jul-10 11:53N 53°21' W 006°13'0 0.0
2019-Jul-10 11:20N 53°21' W 006°13'0 0.0
2019-Jul-10 10:47N 53°21' W 006°13'0 0.0
2019-Jul-10 10:17N 53°21' W 006°13'0 0.0
2019-Jul-10 09:44N 53°21' W 006°13'0 0.0
2019-Jul-10 09:11N 53°21' W 006°13'0 0.0
2019-Jul-10 08:59N 53°21' W 006°13'0 0.0
2019-Jul-10 08:29N 53°21' W 006°13'0 0.0
2019-Jul-10 07:59N 53°21' W 006°13'0 0.0
2019-Jul-10 07:29N 53°21' W 006°13'0 0.0
2019-Jul-10 06:59N 53°21' W 006°13'0 0.1
2019-Jul-10 06:29N 53°21' W 006°13'2 4.6
2019-Jul-10 06:00N 53°21' W 006°09'5 9.8
2019-Jul-10 05:30N 53°18' W 006°02'611.1
2019-Jul-10 05:00N 53°13' W 005°59'611.8
2019-Jul-10 04:30N 53°07' W 005°56'611.9
2019-Jul-10 04:00N 53°01' W 005°55'611.9
2019-Jul-10 03:30N 52°55' W 005°53'713.2
2019-Jul-10 03:00N 52°49' W 005°52'714.3
2019-Jul-10 02:30N 52°42' W 005°51'814.8
2019-Jul-10 02:00N 52°34' W 005°50'714.7
2019-Jul-10 01:30N 52°27' W 005°49'714.7
2019-Jul-10 01:00N 52°20' W 005°49'714.4
2019-Jul-10 00:30N 52°12' W 005°48'714.4
2019-Jul-10 00:00N 52°05' W 005°47'714.1
2019-Jul-09 23:29N 51°58' W 005°46'713.1
2019-Jul-09 22:58N 51°51' W 005°47'713.0
2019-Jul-09 22:26N 51°45' W 005°50'712.5
2019-Jul-09 21:54N 51°38' W 005°52'812.5
2019-Jul-09 21:15N 51°30' W 005°52'1012.4
2019-Jul-09 20:28N 51°20' W 005°53'912.4
2019-Jul-09 19:46N 51°11' W 005°53'312.4
2019-Jul-09 19:30N 51°08' W 005°53'712.4
2019-Jul-09 18:57N 51°01' W 005°53'612.5
2019-Jul-09 18:30N 50°56' W 005°53'612.2
2019-Jul-09 18:00N 50°50' W 005°53'712.1
2019-Jul-09 17:26N 50°43' W 005°52'512.1
2019-Jul-09 17:00N 50°38' W 005°52'611.9
2019-Jul-09 16:30N 50°31' W 005°52'612.0
2019-Jul-09 15:58N 50°25' W 005°53'612.3
2019-Jul-09 15:26N 50°19' W 005°53'613.2
2019-Jul-09 15:00N 50°13' W 005°52'1412.7
2019-Jul-09 13:55N 49°59' W 005°53'513.2
2019-Jul-09 13:30N 49°58' W 005°45'713.5
2019-Jul-09 13:00N 49°56' W 005°34'713.4
2019-Jul-09 12:30N 49°54' W 005°24'713.2
2019-Jul-09 12:00N 49°53' W 005°15'713.2
2019-Jul-09 11:30N 49°53' W 005°04'713.2
2019-Jul-09 10:59N 49°53' W 004°54'713.2
2019-Jul-09 10:30N 49°53' W 004°44'613.0
2019-Jul-09 10:00N 49°54' W 004°34'713.2
2019-Jul-09 09:30N 49°55' W 004°24'713.4
2019-Jul-09 09:00N 49°56' W 004°13'713.6
2019-Jul-09 08:29N 49°57' W 004°02'714.0
2019-Jul-09 08:01N 49°57' W 003°52'714.5
2019-Jul-09 07:31N 49°58' W 003°41'815.1
2019-Jul-09 07:01N 49°58' W 003°29'815.3
2019-Jul-09 06:31N 49°59' W 003°17'816.8
2019-Jul-09 06:01N 49°59' W 003°04'816.8
2019-Jul-09 05:30N 50°01' W 002°51'816.8
2019-Jul-09 05:01N 50°03' W 002°39'816.4
2019-Jul-09 04:31N 50°05' W 002°26'815.9
2019-Jul-09 04:01N 50°07' W 002°14'815.1
2019-Jul-09 03:31N 50°09' W 002°03'714.3
2019-Jul-09 03:00N 50°11' W 001°52'713.6
2019-Jul-09 02:30N 50°13' W 001°42'613.0
2019-Jul-09 02:00N 50°15' W 001°32'612.5
2019-Jul-09 01:30N 50°16' W 001°23'612.3
2019-Jul-09 01:00N 50°18' W 001°13'611.9
2019-Jul-09 00:30N 50°20' W 001°05'612.1
2019-Jul-09 00:00N 50°21' W 000°55'612.9
2019-Jul-08 23:30N 50°23' W 000°46'713.6
2019-Jul-08 23:00N 50°25' W 000°35'714.2
2019-Jul-08 22:30N 50°26' W 000°24'715.1
2019-Jul-08 22:00N 50°28' W 000°13'815.7
2019-Jul-08 21:30N 50°30' W 000°01'816.1
2019-Jul-08 21:01N 50°33' E 000°11'816.4
2019-Jul-08 20:30N 50°35' E 000°23'816.4
2019-Jul-08 20:00N 50°38' E 000°36'816.0
2019-Jul-08 19:29N 50°42' E 000°47'1315.2
2019-Jul-08 18:39N 50°50' E 001°03'314.4
2019-Jul-08 18:26N 50°52' E 001°06'714.2
2019-Jul-08 17:55N 50°58' E 001°13'613.5
2019-Jul-08 17:30N 51°03' E 001°18'4 8.4
2019-Jul-08 17:00N 51°07' E 001°19'0 0.1
2019-Jul-08 16:29N 51°07' E 001°19'0 0.0
2019-Jul-08 15:59N 51°07' E 001°19'0 0.0
2019-Jul-08 15:29N 51°07' E 001°19'0 0.0
2019-Jul-08 14:59N 51°07' E 001°19'0 0.0
2019-Jul-08 14:29N 51°07' E 001°19'0 0.0
2019-Jul-08 13:59N 51°07' E 001°19'0 0.0
2019-Jul-08 13:26N 51°07' E 001°19'0 0.0
2019-Jul-08 12:59N 51°07' E 001°19'0 0.0
2019-Jul-08 12:23N 51°07' E 001°19'0 0.0
2019-Jul-08 11:56N 51°07' E 001°19'0 0.0
2019-Jul-08 11:26N 51°07' E 001°19'0 0.0
2019-Jul-08 10:50N 51°07' E 001°19'0 0.0
2019-Jul-08 10:29N 51°07' E 001°19'0 0.0
2019-Jul-08 09:59N 51°07' E 001°19'0 0.0
2019-Jul-08 09:29N 51°07' E 001°19'0 0.0
2019-Jul-08 08:56N 51°07' E 001°19'0 0.0
2019-Jul-08 08:26N 51°07' E 001°19'0 0.0
2019-Jul-08 07:59N 51°07' E 001°19'0 0.0
2019-Jul-08 07:23N 51°07' E 001°19'0 0.0
2019-Jul-08 06:59N 51°07' E 001°19'0 0.0
2019-Jul-08 06:29N 51°07' E 001°19'0 0.3
2019-Jul-08 06:00N 51°07' E 001°20'5 9.4
2019-Jul-08 05:30N 51°08' E 001°27'5 9.6
2019-Jul-08 05:00N 51°08' E 001°35'5 9.1
2019-Jul-08 04:30N 51°11' E 001°40'5 9.3
2019-Jul-08 04:00N 51°14' E 001°46'5 9.6
2019-Jul-08 03:30N 51°19' E 001°49'5 9.6
2019-Jul-08 03:00N 51°23' E 001°52'5 9.2
2019-Jul-08 02:30N 51°27' E 001°56'4 9.0
2019-Jul-08 02:00N 51°30' E 002°00'510.3
2019-Jul-08 01:30N 51°34' E 002°06'612.8
2019-Jul-08 01:00N 51°39' E 002°13'610.1
2019-Jul-08 00:23N 51°45' E 002°11'410.7
2019-Jul-08 00:01N 51°43' E 002°06'611.3
2019-Jul-07 23:31N 51°38' E 002°01'611.6
2019-Jul-07 23:00N 51°34' E 001°54'612.2
2019-Jul-07 22:30N 51°32' E 001°45'612.4
2019-Jul-07 22:00N 51°29' E 001°36'510.0
2019-Jul-07 21:31N 51°26' E 001°30'714.2
2019-Jul-07 21:00N 51°29' E 001°20'714.6
2019-Jul-07 20:30N 51°29' E 001°08'713.4
2019-Jul-07 20:01N 51°29' E 000°57'918.0
2019-Jul-07 19:31N 51°30' E 000°43'815.7
2019-Jul-07 19:01N 51°30' E 000°30'510.9
2019-Jul-07 18:31N 51°27' E 000°23'5 9.2
2019-Jul-07 18:00N 51°28' E 000°16'611.5
2019-Jul-07 17:30N 51°31' E 000°08'5 6.2
2019-Jul-07 16:39N 51°30' W 000°00'  

Dump ship's entire track history